Time;durP1;ratioP1;P1;durP2;ratioP2;P2;SDS_P1;SDS_P2;PMS_P1;PMS_P2;Temp;Humidity;BMP_temperature;BMP_pressure;BME280_temperature;BME280_humidity;BME280_pressure;Samples;Min_cycle;Max_cycle;Signal;HPM_P1;HPM_P2
2020/12/02 00:01:21;;;;;;;17.35;3.03;;;7.30;99.90;;;;;;5049382;28;20714;-38
2020/12/02 00:04:10;;;;;;;20.05;2.78;;;7.40;99.90;;;;;;5047108;28;20036;-38
2020/12/02 00:06:37;;;;;;;16.90;3.70;;;7.50;99.90;;;;;;5060409;28;20028;-39
2020/12/02 00:09:22;;;;;;;12.15;2.67;;;7.50;99.90;;;;;;5057001;28;20041;-41
2020/12/02 00:11:49;;;;;;;17.25;2.65;;;7.50;99.90;;;;;;5066745;28;20104;-42
2020/12/02 00:14:25;;;;;;;13.27;2.90;;;7.50;99.90;;;;;;5071203;28;20391;-41
2020/12/02 00:16:51;;;;;;;11.52;2.10;;;7.60;99.90;;;;;;5057500;28;20524;-40
2020/12/02 00:19:17;;;;;;;14.98;2.30;;;7.50;99.90;;;;;;5063876;28;20028;-40
2020/12/02 00:21:59;;;;;;;12.02;2.08;;;7.60;99.90;;;;;;5068405;28;20111;-40
2020/12/02 00:24:24;;;;;;;11.20;2.10;;;7.60;99.90;;;;;;5061208;28;20468;-40
2020/12/02 00:26:50;;;;;;;10.90;2.80;;;7.60;99.90;;;;;;5061546;28;20032;-41
2020/12/02 00:29:16;;;;;;;11.73;2.63;;;7.60;99.90;;;;;;5060820;28;20033;-41
2020/12/02 00:31:41;;;;;;;18.92;2.38;;;7.60;99.90;;;;;;5066893;28;20071;-39
2020/12/02 00:34:07;;;;;;;15.27;2.33;;;7.60;99.90;;;;;;5061291;28;20036;-42
2020/12/02 00:36:33;;;;;;;14.02;2.55;;;7.60;99.90;;;;;;5067831;28;20476;-39
2020/12/02 00:38:58;;;;;;;19.70;2.60;;;7.60;99.90;;;;;;5060601;28;20040;-39
2020/12/02 00:41:24;;;;;;;14.40;2.53;;;7.60;99.90;;;;;;5052499;28;20032;-39
2020/12/02 00:43:49;;;;;;;12.25;1.88;;;7.70;99.90;;;;;;5066570;28;20074;-41
2020/12/02 00:46:49;;;;;;;12.95;1.98;;;7.70;99.90;;;;;;5058809;28;20099;-40
2020/12/02 00:49:16;;;;;;;12.98;3.15;;;7.60;99.90;;;;;;5065537;28;20058;-39
2020/12/02 00:51:41;;;;;;;17.63;2.70;;;7.60;99.90;;;;;;5050366;28;20138;-39
2020/12/02 00:54:08;;;;;;;16.48;3.10;;;7.70;99.90;;;;;;5061795;28;20400;-40
2020/12/02 00:56:36;;;;;;;16.48;2.88;;;7.70;99.90;;;;;;5064518;28;20027;-39
2020/12/02 00:59:13;;;;;;;13.38;2.65;;;7.70;99.90;;;;;;5061511;28;20078;-38
2020/12/02 01:01:57;;;;;;;10.55;2.45;;;7.70;99.90;;;;;;5068740;28;20025;-39
2020/12/02 01:04:23;;;;;;;13.10;2.40;;;7.60;99.90;;;;;;5074199;28;20062;-41
2020/12/02 01:06:53;;;;;;;15.18;2.67;;;7.70;99.90;;;;;;5064689;28;20029;-37
2020/12/02 01:09:20;;;;;;;15.25;2.65;;;7.70;99.90;;;;;;5062148;28;20055;-40
2020/12/02 01:11:48;;;;;;;13.55;2.20;;;7.70;99.90;;;;;;5065247;28;20064;-41
2020/12/02 01:14:16;;;;;;;14.32;2.55;;;7.70;99.90;;;;;;5065235;28;20056;-42
2020/12/02 01:16:47;;;;;;;13.60;2.78;;;7.70;99.90;;;;;;5061357;28;20104;-40
2020/12/02 01:19:15;;;;;;;15.15;2.35;;;7.70;99.90;;;;;;5065284;28;20028;-41
2020/12/02 01:21:52;;;;;;;20.42;2.40;;;7.60;99.90;;;;;;5068237;28;20039;-40
2020/12/02 01:24:22;;;;;;;14.45;2.58;;;7.70;99.90;;;;;;5061256;28;20037;-40
2020/12/02 01:27:21;;;;;;;14.32;2.22;;;7.70;99.90;;;;;;5058797;28;20036;-40
2020/12/02 01:29:49;;;;;;;15.07;2.50;;;7.60;99.90;;;;;;5048785;28;20044;-40
2020/12/02 01:32:17;;;;;;;16.70;3.17;;;7.60;99.90;;;;;;5065891;28;20028;-40
2020/12/02 01:34:47;;;;;;;12.55;2.80;;;7.60;99.90;;;;;;5067739;28;20360;-40
2020/12/02 01:37:35;;;;;;;12.63;2.58;;;7.60;99.90;;;;;;5060662;28;20511;-40
2020/12/02 01:40:15;;;;;;;16.13;2.80;;;7.60;99.90;;;;;;5072003;28;20043;-38
2020/12/02 01:42:45;;;;;;;13.55;2.97;;;7.50;99.90;;;;;;5068810;28;20029;-40
2020/12/02 01:45:20;;;;;;;17.15;3.10;;;7.50;99.90;;;;;;5052512;28;20032;-40
2020/12/02 01:47:51;;;;;;;16.40;3.45;;;7.50;99.90;;;;;;5055596;28;20032;-39
2020/12/02 01:50:39;;;;;;;15.85;3.40;;;7.50;99.90;;;;;;5064311;28;20036;-42
2020/12/02 01:53:19;;;;;;;11.65;2.60;;;7.50;99.90;;;;;;5068520;28;20071;-38
2020/12/02 01:55:55;;;;;;;11.38;2.88;;;7.50;99.90;;;;;;5069565;28;20025;-40
2020/12/02 01:58:45;;;;;;;13.82;2.92;;;7.50;99.90;;;;;;5062254;28;20397;-44
2020/12/02 02:01:22;;;;;;;13.88;3.00;;;7.50;99.90;;;;;;5049692;28;20037;-40
2020/12/02 02:03:55;;;;;;;16.10;3.70;;;7.40;99.90;;;;;;5060910;28;20036;-40
2020/12/02 02:06:31;;;;;;;11.30;3.22;;;7.40;99.90;;;;;;5071452;28;20028;-41
2020/12/02 02:08:57;;;;;;;14.10;4.65;;;7.40;99.90;;;;;;5064889;28;20039;-39
2020/12/02 02:11:23;;;;;;;12.75;3.15;;;7.40;99.90;;;;;;5064403;28;20262;-41
2020/12/02 02:13:52;;;;;;;12.82;3.85;;;7.40;99.90;;;;;;5041876;28;20059;-40
2020/12/02 02:16:32;;;;;;;12.38;4.47;;;7.40;99.90;;;;;;5061074;28;20025;-40
2020/12/02 02:18:58;;;;;;;11.57;4.00;;;7.30;99.90;;;;;;5066484;28;20330;-41
2020/12/02 02:21:28;;;;;;;11.93;4.53;;;7.40;99.90;;;;;;5052547;28;20552;-42
2020/12/02 02:23:54;;;;;;;13.45;5.07;;;7.40;99.90;;;;;;5056737;28;20033;-41
2020/12/02 02:26:39;;;;;;;14.80;4.82;;;7.30;99.90;;;;;;5062762;28;20029;-40
2020/12/02 02:29:20;;;;;;;13.20;5.22;;;7.30;99.90;;;;;;5068772;28;20106;-40
2020/12/02 02:31:45;;;;;;;16.98;5.05;;;7.30;99.90;;;;;;5068690;28;20108;-39
2020/12/02 02:34:13;;;;;;;14.55;4.97;;;7.30;99.90;;;;;;5062674;28;20111;-40
2020/12/02 02:36:38;;;;;;;20.73;5.78;;;7.20;99.90;;;;;;5062087;28;20028;-39
2020/12/02 02:39:05;;;;;;;17.00;5.88;;;7.30;99.90;;;;;;5067603;28;20082;-41
2020/12/02 02:41:31;;;;;;;16.65;5.05;;;7.30;99.90;;;;;;5070019;28;20078;-40
2020/12/02 02:43:57;;;;;;;15.95;6.30;;;7.20;99.90;;;;;;5051468;28;20083;-39
2020/12/02 02:46:22;;;;;;;19.00;5.97;;;7.20;99.90;;;;;;5070822;28;20020;-42
2020/12/02 02:48:48;;;;;;;18.17;6.60;;;7.20;99.90;;;;;;5064558;28;20135;-40
2020/12/02 02:51:14;;;;;;;17.38;5.90;;;7.20;99.90;;;;;;5060632;28;20115;-41
2020/12/02 02:53:39;;;;;;;15.98;6.13;;;7.20;99.90;;;;;;5070742;28;20032;-40
2020/12/02 02:56:05;;;;;;;18.25;6.43;;;7.20;99.90;;;;;;5071788;28;20024;-40
2020/12/02 02:58:31;;;;;;;18.00;6.38;;;7.20;99.90;;;;;;5041258;28;20033;-39
2020/12/02 03:01:01;;;;;;;17.08;6.15;;;7.20;99.90;;;;;;5064692;28;20465;-40
2020/12/02 03:03:38;;;;;;;15.57;7.25;;;7.10;99.90;;;;;;5066905;28;20055;-39
2020/12/02 03:06:05;;;;;;;17.48;7.00;;;7.10;99.90;;;;;;5088550;28;20127;-39
2020/12/02 03:08:31;;;;;;;20.60;7.38;;;7.10;99.90;;;;;;5086679;28;20349;-42
2020/12/02 03:11:00;;;;;;;17.30;7.53;;;7.10;99.90;;;;;;5085623;28;20024;-40
2020/12/02 03:13:37;;;;;;;19.00;8.35;;;7.10;99.90;;;;;;5089760;28;20085;-40
2020/12/02 03:16:09;;;;;;;25.42;7.90;;;7.00;99.90;;;;;;5080479;28;20038;-39
2020/12/02 03:18:34;;;;;;;;;;;7.10;99.90;;;;;;5088533;28;20123;-40
2020/12/02 03:21:03;;;;;;;21.35;8.73;;;7.10;99.90;;;;;;5083030;28;20019;-41
2020/12/02 03:23:29;;;;;;;31.70;9.32;;;7.10;99.90;;;;;;5085785;28;20070;-40
2020/12/02 03:25:55;;;;;;;22.17;9.10;;;7.00;99.90;;;;;;5092364;28;20028;-40
2020/12/02 03:28:27;;;;;;;35.33;10.73;;;7.10;99.90;;;;;;5080626;28;20400;-40
2020/12/02 03:30:53;;;;;;;28.65;10.23;;;7.00;99.90;;;;;;5070252;28;20118;-40
2020/12/02 03:33:18;;;;;;;28.13;11.77;;;7.00;99.90;;;;;;5089369;28;20036;-40
2020/12/02 03:35:44;;;;;;;23.77;12.45;;;7.00;99.90;;;;;;5070990;28;20032;-40
2020/12/02 03:38:11;;;;;;;23.20;11.23;;;7.00;99.90;;;;;;5090367;28;20063;-38
2020/12/02 03:40:40;;;;;;;26.77;13.90;;;6.90;99.90;;;;;;5066010;28;20406;-39
2020/12/02 03:43:05;;;;;;;24.35;11.57;;;6.90;99.90;;;;;;5071356;28;20494;-42
2020/12/02 03:45:31;;;;;;;27.52;13.55;;;6.90;99.90;;;;;;5084148;28;20025;-40
2020/12/02 03:47:56;;;;;;;29.35;14.50;;;6.80;99.90;;;;;;5076685;28;20464;-41
2020/12/02 03:50:22;;;;;;;26.27;13.65;;;6.80;99.90;;;;;;5076087;28;20036;-42
2020/12/02 03:52:48;;;;;;;26.88;14.70;;;6.80;99.90;;;;;;5080784;28;20024;-47
2020/12/02 03:55:13;;;;;;;26.73;13.60;;;6.80;99.90;;;;;;5074016;28;20062;-41
2020/12/02 03:57:39;;;;;;;22.38;13.50;;;6.90;99.90;;;;;;5086533;28;20052;-44
2020/12/02 04:00:10;;;;;;;23.38;13.63;;;6.90;99.90;;;;;;5087951;28;20028;-38
2020/12/02 04:02:37;;;;;;;31.70;15.10;;;6.80;99.90;;;;;;5081274;28;20085;-41
2020/12/02 04:05:04;;;;;;;36.75;15.38;;;6.70;99.90;;;;;;5059505;28;20045;-45
2020/12/02 04:07:29;;;;;;;29.20;15.30;;;6.70;99.90;;;;;;5064337;28;20062;-38
2020/12/02 04:09:55;;;;;;;31.42;15.52;;;6.70;99.90;;;;;;5069069;28;20115;-42
2020/12/02 04:12:20;;;;;;;30.42;16.48;;;6.60;99.90;;;;;;5061648;28;20032;-42
2020/12/02 04:14:46;;;;;;;29.27;15.85;;;6.70;99.90;;;;;;5041946;28;20112;-44
2020/12/02 04:17:12;;;;;;;30.40;17.38;;;6.60;99.90;;;;;;5061308;28;20029;-42
2020/12/02 04:19:37;;;;;;;32.70;17.23;;;6.50;99.90;;;;;;5065218;28;20074;-42
2020/12/02 04:22:03;;;;;;;33.20;16.70;;;6.50;99.90;;;;;;5068050;28;20067;-42
2020/12/02 04:24:28;;;;;;;23.67;14.38;;;6.60;99.90;;;;;;5069671;28;20399;-42
2020/12/02 04:26:54;;;;;;;29.60;15.07;;;6.60;99.90;;;;;;5066563;28;20032;-40
2020/12/02 04:29:20;;;;;;;24.65;13.45;;;6.60;99.90;;;;;;5066363;28;20060;-43
2020/12/02 04:31:45;;;;;;;31.17;16.40;;;6.60;99.90;;;;;;5069502;28;20107;-42
2020/12/02 04:34:11;;;;;;;30.63;17.52;;;6.60;99.90;;;;;;5030198;28;20045;-48
2020/12/02 04:36:37;;;;;;;31.63;15.80;;;6.50;99.90;;;;;;5064360;28;20028;-45
2020/12/02 04:39:03;;;;;;;34.72;17.63;;;6.40;99.90;;;;;;5067432;28;20492;-42
2020/12/02 04:41:31;;;;;;;32.22;17.17;;;6.30;99.90;;;;;;5063269;28;20032;-43
2020/12/02 04:43:57;;;;;;;32.72;17.27;;;6.30;99.90;;;;;;5066184;28;20033;-42
2020/12/02 04:46:31;;;;;;;26.65;14.75;;;6.30;99.90;;;;;;5061529;28;20461;-43
2020/12/02 04:49:05;;;;;;;26.70;15.23;;;6.40;99.90;;;;;;5066984;28;20047;-42
2020/12/02 04:51:31;;;;;;;30.85;16.67;;;6.40;99.90;;;;;;5048041;28;20473;-43
2020/12/02 04:53:58;;;;;;;27.63;15.70;;;6.30;99.90;;;;;;5059525;28;20056;-41
2020/12/02 04:56:25;;;;;;;36.17;18.15;;;6.20;99.90;;;;;;5067726;28;20086;-41
2020/12/02 04:58:53;;;;;;;30.58;17.58;;;6.20;99.90;;;;;;5061550;28;20036;-44
2020/12/02 05:01:44;;;;;;;32.13;17.25;;;6.10;99.90;;;;;;5069611;28;20020;-44
2020/12/02 05:04:22;;;;;;;31.75;17.20;;;6.00;99.90;;;;;;5065340;28;20064;-44
2020/12/02 05:06:50;;;;;;;31.42;15.40;;;5.90;99.90;;;;;;5066707;28;20503;-44
2020/12/02 05:09:22;;;;;;;31.58;15.60;;;6.00;99.90;;;;;;5066910;28;20033;-40
2020/12/02 05:12:01;;;;;;;;;;;5.90;99.90;;;;;;5055465;28;20072;-44
2020/12/02 05:14:46;;;;;;;24.30;13.80;;;5.80;99.90;;;;;;5068249;28;20010;-42
2020/12/02 05:17:21;;;;;;;22.50;13.80;;;5.90;99.90;;;;;;5071028;28;20116;-44
2020/12/02 05:20:02;;;;;;;25.88;13.65;;;5.90;99.90;;;;;;5065673;28;20499;-45
2020/12/02 05:22:27;;;;;;;24.30;11.15;;;5.70;99.90;;;;;;5061738;28;20094;-40
2020/12/02 05:24:53;;;;;;;26.17;13.95;;;5.60;99.90;;;;;;5070833;28;20036;-42
2020/12/02 05:27:27;;;;;;;25.02;14.25;;;5.60;99.90;;;;;;5072973;28;20362;-41
2020/12/02 05:30:02;;;;;;;26.08;14.57;;;5.60;99.90;;;;;;5072111;28;20119;-40
2020/12/02 05:32:28;;;;;;;25.52;13.82;;;5.60;99.90;;;;;;5070933;28;20032;-45
2020/12/02 05:34:55;;;;;;;22.25;13.32;;;5.70;99.90;;;;;;5063749;28;20041;-44
2020/12/02 05:37:34;;;;;;;24.08;12.57;;;5.70;99.90;;;;;;5067088;28;20036;-45
2020/12/02 05:40:04;;;;;;;22.88;12.45;;;5.60;99.90;;;;;;5070017;28;20032;-42
2020/12/02 05:42:37;;;;;;;23.75;13.27;;;5.60;99.90;;;;;;5062612;28;20417;-44
2020/12/02 05:45:14;;;;;;;23.50;13.40;;;5.50;99.90;;;;;;5059009;28;20041;-45
2020/12/02 05:47:40;;;;;;;22.30;11.90;;;5.50;99.90;;;;;;5057956;28;20033;-45
2020/12/02 05:50:12;;;;;;;23.92;13.02;;;5.40;99.90;;;;;;5066098;28;20411;-41
2020/12/02 05:52:40;;;;;;;20.33;11.77;;;5.40;99.90;;;;;;5073415;28;20107;-40
2020/12/02 05:55:09;;;;;;;20.92;12.05;;;5.30;99.90;;;;;;5070272;28;20073;-42
2020/12/02 05:57:38;;;;;;;21.05;11.93;;;5.20;99.90;;;;;;5070336;28;20063;-38
2020/12/02 06:00:05;;;;;;;18.10;10.73;;;5.20;99.90;;;;;;5064917;28;20139;-44
2020/12/02 06:02:31;;;;;;;18.98;12.00;;;5.10;99.90;;;;;;5057982;28;20024;-44
2020/12/02 06:04:57;;;;;;;19.48;11.65;;;5.00;99.90;;;;;;5055639;28;20072;-43
2020/12/02 06:07:23;;;;;;;24.80;13.30;;;4.90;99.90;;;;;;5058746;28;20138;-43
2020/12/02 06:09:50;;;;;;;25.58;13.13;;;4.80;99.90;;;;;;5071080;28;20059;-40
2020/12/02 06:12:22;;;;;;;25.52;13.15;;;4.70;99.90;;;;;;5064854;28;20063;-42
2020/12/02 06:14:49;;;;;;;21.92;12.35;;;4.80;99.90;;;;;;5067154;28;20028;-40
2020/12/02 06:17:34;;;;;;;18.27;12.50;;;4.90;99.90;;;;;;5075270;28;20039;-45
2020/12/02 06:20:00;;;;;;;23.48;12.30;;;4.70;99.90;;;;;;5051544;28;20131;-42
2020/12/02 06:22:53;;;;;;;34.03;13.63;;;4.80;99.90;;;;;;5071065;28;20104;-46
2020/12/02 06:25:49;;;;;;;20.58;12.35;;;4.70;99.90;;;;;;5054857;28;20029;-41
2020/12/02 06:28:28;;;;;;;17.83;10.80;;;4.90;99.90;;;;;;5061375;28;20060;-41
2020/12/02 06:31:24;;;;;;;20.33;11.18;;;4.80;99.90;;;;;;5070876;28;20459;-40
2020/12/02 06:33:55;;;;;;;23.02;12.82;;;4.80;99.90;;;;;;5069520;28;20021;-45
2020/12/02 06:36:26;;;;;;;22.17;12.85;;;4.90;99.90;;;;;;5072284;28;20050;-44
2020/12/02 06:39:05;;;;;;;20.48;11.18;;;4.90;99.90;;;;;;5084388;28;20040;-41
2020/12/02 06:41:37;;;;;;;20.30;12.70;;;4.90;99.90;;;;;;5091399;28;20090;-44
2020/12/02 06:44:09;;;;;;;25.73;13.07;;;4.90;99.90;;;;;;5081427;28;20024;-42
2020/12/02 06:46:40;;;;;;;;;;;4.80;99.90;;;;;;5068608;28;20108;-41
2020/12/02 06:49:06;;;;;;;27.03;13.47;;;4.80;99.90;;;;;;5082988;28;20317;-41
2020/12/02 06:51:34;;;;;;;38.90;20.00;;;4.90;99.90;;;;;;5091147;28;20035;-43
2020/12/02 06:54:03;;;;;;;31.27;16.98;;;4.80;99.90;;;;;;5082867;28;20055;-44
2020/12/02 06:56:32;;;;;;;28.45;16.33;;;4.80;99.90;;;;;;5075184;28;20043;-42
2020/12/02 06:59:06;;;;;;;39.95;19.70;;;4.90;99.90;;;;;;5080241;28;20529;-41
2020/12/02 07:01:33;;;;;;;42.70;20.88;;;4.80;99.90;;;;;;5082965;28;20029;-42
2020/12/02 07:04:03;;;;;;;54.05;30.20;;;4.90;99.90;;;;;;5042988;28;20139;-48
2020/12/02 07:06:30;;;;;;;53.40;26.55;;;4.90;99.90;;;;;;5087003;28;20032;-42
2020/12/02 07:09:14;;;;;;;53.78;26.13;;;4.90;99.90;;;;;;5079562;28;20035;-45
2020/12/02 07:11:52;;;;;;;50.72;28.05;;;5.00;99.90;;;;;;5071083;28;20465;-42
2020/12/02 07:14:23;;;;;;;49.00;25.67;;;5.00;99.90;;;;;;5079713;28;20422;-43
2020/12/02 07:16:57;;;;;;;53.67;25.65;;;5.00;99.90;;;;;;5054704;28;20029;-40
2020/12/02 07:19:29;;;;;;;63.03;30.42;;;5.10;99.90;;;;;;5068434;28;20880;-40
2020/12/02 07:22:20;;;;;;;48.38;24.33;;;5.10;99.90;;;;;;5090909;28;20044;-41
2020/12/02 07:24:50;;;;;;;49.47;23.25;;;5.10;99.90;;;;;;5081851;28;20024;-41
2020/12/02 07:27:20;;;;;;;46.47;23.38;;;5.00;99.90;;;;;;5091393;28;20042;-40
2020/12/02 07:29:46;;;;;;;46.72;24.17;;;5.00;99.90;;;;;;5090000;28;20097;-42
2020/12/02 07:32:18;;;;;;;49.22;25.27;;;5.10;99.90;;;;;;5091751;28;20024;-42
2020/12/02 07:34:44;;;;;;;51.90;25.35;;;5.10;99.90;;;;;;5084142;28;20056;-41
2020/12/02 07:37:12;;;;;;;43.20;22.90;;;5.10;99.90;;;;;;5059273;28;20036;-41
2020/12/02 07:40:05;;;;;;;48.10;25.35;;;5.20;99.90;;;;;;5072206;28;20032;-41
2020/12/02 07:42:42;;;;;;;49.70;23.80;;;5.20;99.90;;;;;;5074957;28;20043;-42
2020/12/02 07:45:14;;;;;;;45.13;24.65;;;5.10;99.90;;;;;;5079182;28;20032;-42
2020/12/02 07:47:53;;;;;;;44.85;23.10;;;5.20;99.90;;;;;;5071752;28;20103;-38
2020/12/02 07:50:26;;;;;;;47.28;22.73;;;5.10;99.90;;;;;;5079514;28;20067;-46
2020/12/02 07:52:55;;;;;;;46.55;23.70;;;5.10;99.90;;;;;;5048539;28;20124;-39
2020/12/02 07:55:31;;;;;;;45.13;23.25;;;5.10;99.90;;;;;;5063333;28;20078;-43
2020/12/02 07:58:00;;;;;;;44.13;22.58;;;5.10;99.90;;;;;;5082521;28;20453;-42
2020/12/02 08:00:37;;;;;;;48.67;23.27;;;5.10;99.90;;;;;;5087374;28;20032;-41
2020/12/02 08:03:05;;;;;;;41.90;21.67;;;5.10;99.90;;;;;;5049259;28;20087;-41
2020/12/02 08:05:46;;;;;;;46.15;22.35;;;5.20;99.90;;;;;;5046658;28;20536;-42
2020/12/02 08:08:11;;;;;;;40.07;20.27;;;5.20;99.90;;;;;;5063120;28;20078;-41
2020/12/02 08:10:37;;;;;;;40.53;21.45;;;5.20;99.90;;;;;;5055601;28;20447;-39
2020/12/02 08:13:12;;;;;;;35.92;19.23;;;5.20;99.90;;;;;;5050895;28;20049;-42
2020/12/02 08:16:04;;;;;;;33.78;18.00;;;5.30;99.90;;;;;;5070119;28;20060;-40
2020/12/02 08:18:30;;;;;;;;;;;5.30;99.90;;;;;;5048199;28;20068;-42
2020/12/02 08:21:27;;;;;;;35.78;18.08;;;5.40;99.90;;;;;;5084108;28;20402;-42
2020/12/02 08:24:22;;;;;;;34.08;18.17;;;5.40;99.90;;;;;;4991963;28;20058;-43
2020/12/02 08:26:52;;;;;;;31.92;17.90;;;5.40;99.90;;;;;;4991272;28;20045;-43
2020/12/02 08:29:25;;;;;;;33.57;16.70;;;5.40;99.90;;;;;;4998554;28;20130;-42
2020/12/02 08:32:17;;;;;;;31.30;16.95;;;5.50;99.90;;;;;;5000471;28;20468;-40
2020/12/02 08:34:43;;;;;;;31.05;17.13;;;5.50;99.90;;;;;;4972869;28;20042;-41
2020/12/02 08:37:11;;;;;;;29.58;17.15;;;5.60;99.90;;;;;;5008194;28;20042;-42
2020/12/02 08:39:39;;;;;;;27.50;15.27;;;5.60;99.90;;;;;;5008756;28;20044;-41
2020/12/02 08:42:05;;;;;;;27.98;15.10;;;5.60;99.90;;;;;;4982627;28;20442;-41
2020/12/02 08:44:31;;;;;;;27.52;14.73;;;5.60;99.90;;;;;;4990095;28;20066;-40
2020/12/02 08:47:11;;;;;;;31.10;17.77;;;5.60;99.90;;;;;;4980174;28;20080;-46
2020/12/02 08:49:41;;;;;;;26.67;15.73;;;5.70;99.90;;;;;;5008989;28;20036;-44
2020/12/02 08:52:09;;;;;;;29.08;15.32;;;5.70;99.90;;;;;;5007292;28;20139;-37
2020/12/02 08:54:34;;;;;;;30.50;16.33;;;5.80;99.90;;;;;;4985238;28;20039;-41
2020/12/02 08:57:11;;;;;;;29.85;16.73;;;5.80;99.90;;;;;;4991320;28;20073;-43
2020/12/02 08:59:38;;;;;;;31.85;16.48;;;5.80;99.90;;;;;;5000175;28;20477;-45
2020/12/02 09:02:11;;;;;;;32.63;17.20;;;5.80;99.90;;;;;;5066723;28;20041;-39
2020/12/02 09:04:37;;;;;;;28.40;16.25;;;5.90;99.90;;;;;;5085817;28;20061;-40
2020/12/02 09:07:02;;;;;;;32.38;16.23;;;5.90;99.90;;;;;;5086461;28;20461;-40
2020/12/02 09:09:28;;;;;;;32.50;16.33;;;5.90;99.90;;;;;;5086916;28;20042;-42
2020/12/02 09:11:54;;;;;;;30.80;16.52;;;5.80;99.90;;;;;;5076995;28;20044;-42
2020/12/02 09:14:21;;;;;;;31.10;16.58;;;5.90;99.90;;;;;;5061528;28;20032;-44
2020/12/02 09:16:47;;;;;;;32.88;16.52;;;5.90;99.90;;;;;;5085624;28;20040;-41
2020/12/02 09:19:16;;;;;;;27.40;16.38;;;5.90;99.90;;;;;;5056098;28;20036;-41
2020/12/02 09:21:43;;;;;;;28.75;15.32;;;6.00;99.90;;;;;;5079981;28;20391;-42
2020/12/02 09:24:09;;;;;;;29.02;15.98;;;6.00;99.90;;;;;;5077450;28;20150;-41
2020/12/02 09:26:38;;;;;;;28.50;17.10;;;6.00;99.90;;;;;;5070761;28;20097;-40
2020/12/02 09:29:08;;;;;;;29.73;16.10;;;6.10;99.90;;;;;;5071398;28;20452;-42
2020/12/02 09:31:34;;;;;;;28.35;16.13;;;6.10;99.90;;;;;;5059002;28;20184;-41
2020/12/02 09:34:03;;;;;;;30.98;16.63;;;6.10;99.90;;;;;;5087773;28;20060;-45
2020/12/02 09:36:30;;;;;;;27.83;17.00;;;6.20;99.90;;;;;;5078616;28;20028;-42
2020/12/02 09:38:56;;;;;;;30.95;16.55;;;6.20;99.90;;;;;;5085640;28;20117;-46
2020/12/02 09:41:28;;;;;;;31.17;15.90;;;6.20;99.90;;;;;;5082787;28;20074;-41
2020/12/02 09:44:31;;;;;;;31.27;16.95;;;6.30;99.90;;;;;;5069604;28;20035;-40
2020/12/02 09:47:18;;;;;;;30.52;17.35;;;6.30;99.90;;;;;;5060879;28;20037;-42
2020/12/02 09:49:46;;;;;;;31.80;17.52;;;6.30;99.90;;;;;;5065306;28;20473;-40
2020/12/02 09:52:12;;;;;;;29.38;16.88;;;6.30;99.90;;;;;;5044552;28;20061;-42
2020/12/02 09:54:43;;;;;;;30.48;16.95;;;6.30;99.90;;;;;;5070668;28;20080;-40
2020/12/02 09:57:17;;;;;;;30.23;16.60;;;6.30;99.90;;;;;;5059811;28;20036;-40
2020/12/02 09:59:43;;;;;;;31.15;17.63;;;6.30;99.90;;;;;;5085668;28;20346;-40
2020/12/02 10:02:36;;;;;;;31.23;16.60;;;6.40;99.90;;;;;;5082802;28;20063;-40
2020/12/02 10:05:28;;;;;;;31.23;17.23;;;6.40;99.90;;;;;;5088099;28;20062;-41
2020/12/02 10:08:14;;;;;;;33.30;16.73;;;6.40;99.90;;;;;;5048913;28;20036;-40
2020/12/02 10:11:31;;;;;;;29.85;17.00;;;6.40;99.90;;;;;;5053743;28;20029;-47
2020/12/02 10:14:18;;;;;;;31.25;18.00;;;6.40;99.90;;;;;;5007154;28;20072;-39
2020/12/02 10:17:25;;;;;;;31.08;16.27;;;6.50;99.90;;;;;;4992387;28;20128;-43
2020/12/02 10:20:01;;;;;;;29.42;15.80;;;6.50;99.90;;;;;;4953211;29;20106;-41
2020/12/02 10:22:57;;;;;;;38.15;17.92;;;6.50;99.90;;;;;;4950633;29;20043;-39
2020/12/02 10:25:41;;;;;;;30.17;16.15;;;6.50;99.90;;;;;;4898378;29;20422;-40
2020/12/02 10:28:26;;;;;;;28.95;16.30;;;6.50;99.90;;;;;;4913403;29;20035;-38
2020/12/02 10:31:17;;;;;;;34.25;19.08;;;6.50;99.90;;;;;;4914443;29;20123;-48
2020/12/02 10:34:10;;;;;;;32.63;17.48;;;6.50;99.90;;;;;;4913415;29;20087;-46
2020/12/02 10:36:41;;;;;;;29.13;15.95;;;6.50;99.90;;;;;;4914063;29;20084;-47
2020/12/02 10:39:12;;;;;;;33.33;16.83;;;6.60;99.90;;;;;;4902467;29;20040;-38
2020/12/02 10:42:07;;;;;;;32.33;18.40;;;6.60;99.90;;;;;;4912742;29;20136;-44
2020/12/02 10:44:35;;;;;;;35.47;19.58;;;6.60;99.90;;;;;;4913525;29;20084;-49
2020/12/02 10:47:42;;;;;;;31.90;16.70;;;6.60;99.90;;;;;;4913243;29;20100;-49
2020/12/02 10:50:08;;;;;;;31.40;17.75;;;6.70;99.90;;;;;;4980498;28;20051;-44
2020/12/02 10:52:34;;;;;;;28.80;16.65;;;6.60;99.90;;;;;;4979529;28;20058;-48
2020/12/02 10:55:01;;;;;;;32.38;19.17;;;6.70;99.90;;;;;;4975546;28;20077;-47
2020/12/02 10:57:27;;;;;;;34.03;18.10;;;6.70;99.90;;;;;;5016736;28;20037;-47
2020/12/02 10:59:58;;;;;;;35.42;19.15;;;6.70;99.90;;;;;;5008109;28;20442;-47
2020/12/02 11:02:30;;;;;;;37.03;18.90;;;6.70;99.90;;;;;;5042805;28;20198;-44
2020/12/02 11:04:57;;;;;;;33.03;16.92;;;6.70;99.90;;;;;;5073015;28;20048;-46
2020/12/02 11:07:58;;;;;;;33.78;18.50;;;6.80;99.90;;;;;;5075446;28;20059;-48
2020/12/02 11:10:30;;;;;;;35.67;19.05;;;6.80;99.90;;;;;;5085010;28;20072;-43
2020/12/02 11:13:32;;;;;;;30.45;15.98;;;6.80;99.90;;;;;;5060396;28;20024;-43
2020/12/02 11:16:03;;;;;;;33.72;17.50;;;6.90;99.90;;;;;;5017731;28;20045;-40
2020/12/02 11:18:40;;;;;;;29.92;17.13;;;7.00;99.90;;;;;;5028275;28;20429;-41
2020/12/02 11:21:59;;;;;;;31.30;17.05;;;7.00;99.90;;;;;;5030069;28;20076;-39
2020/12/02 11:24:36;;;;;;;31.75;16.20;;;7.00;99.90;;;;;;4970924;28;20545;-40
2020/12/02 11:27:03;;;;;;;28.75;16.60;;;7.00;99.90;;;;;;4970359;28;20074;-38
2020/12/02 11:29:29;;;;;;;34.10;18.00;;;7.00;99.90;;;;;;4978069;28;20046;-44
2020/12/02 11:31:58;;;;;;;28.10;16.65;;;7.00;99.90;;;;;;4967706;28;20097;-42
2020/12/02 11:35:01;;;;;;;31.73;17.90;;;7.10;99.90;;;;;;4967675;28;20037;-41
2020/12/02 11:37:59;;;;;;;34.90;18.00;;;7.10;99.90;;;;;;4966253;28;20058;-42
2020/12/02 11:40:34;;;;;;;31.23;18.00;;;7.00;99.90;;;;;;4964230;28;20169;-44
2020/12/02 11:43:42;;;;;;;31.10;17.85;;;7.00;99.90;;;;;;4968495;28;20439;-44
2020/12/02 11:46:16;;;;;;;41.55;20.13;;;6.90;99.90;;;;;;4856027;29;20056;-40
2020/12/02 11:49:00;;;;;;;37.42;20.10;;;6.80;99.90;;;;;;4848918;29;20123;-41
2020/12/02 11:51:32;;;;;;;34.03;19.13;;;7.00;99.90;;;;;;4862098;29;20040;-44
2020/12/02 11:54:01;;;;;;;37.90;19.90;;;7.10;99.90;;;;;;4898696;29;20033;-45
2020/12/02 11:56:35;;;;;;;34.80;19.70;;;7.10;99.90;;;;;;4936688;28;20159;-47
2020/12/02 11:59:14;;;;;;;35.15;19.00;;;7.30;99.90;;;;;;4948921;28;20043;-48
2020/12/02 12:01:42;;;;;;;31.85;18.90;;;7.40;99.90;;;;;;4950174;28;20032;-48
2020/12/02 12:04:19;;;;;;;36.50;19.90;;;7.40;99.90;;;;;;4950941;28;20121;-42
2020/12/02 12:06:50;;;;;;;30.02;17.83;;;7.60;99.90;;;;;;4971529;28;20059;-41
2020/12/02 12:09:32;;;;;;;31.33;18.70;;;7.60;99.90;;;;;;4970827;28;20100;-46
2020/12/02 12:12:04;;;;;;;32.92;19.10;;;7.60;99.90;;;;;;4974851;28;20120;-47
2020/12/02 12:14:36;;;;;;;37.33;19.40;;;7.60;99.90;;;;;;4978897;28;20034;-45
2020/12/02 12:17:13;;;;;;;32.90;18.30;;;7.60;99.90;;;;;;4978681;28;20047;-42
2020/12/02 12:19:45;;;;;;;36.55;19.90;;;7.60;99.90;;;;;;4952085;28;20064;-44
2020/12/02 12:22:29;;;;;;;33.95;18.90;;;7.60;99.90;;;;;;5002542;28;20037;-41
2020/12/02 12:25:12;;;;;;;36.42;19.80;;;7.50;99.90;;;;;;5083898;28;20040;-42
2020/12/02 12:27:42;;;;;;;34.03;20.77;;;7.50;99.90;;;;;;5089092;28;20035;-42
2020/12/02 12:30:10;;;;;;;39.88;21.27;;;7.50;99.90;;;;;;5080117;28;20376;-42
2020/12/02 12:32:58;;;;;;;42.55;23.88;;;7.50;99.90;;;;;;5088272;28;20047;-41
2020/12/02 12:35:28;;;;;;;42.40;23.20;;;7.50;99.90;;;;;;5072662;28;20036;-41
2020/12/02 12:38:12;;;;;;;42.10;24.23;;;7.40;99.90;;;;;;5081095;28;20028;-44
2020/12/02 12:40:53;;;;;;;38.38;24.25;;;7.40;99.90;;;;;;5063486;28;20410;-41
2020/12/02 12:43:25;;;;;;;38.63;22.67;;;7.40;99.90;;;;;;5070314;28;20029;-40
2020/12/02 12:46:00;;;;;;;38.42;23.73;;;7.50;99.90;;;;;;5083404;28;20021;-48
2020/12/02 12:48:26;;;;;;;37.15;22.50;;;7.50;99.90;;;;;;5063792;28;20494;-45
2020/12/02 12:50:52;;;;;;;40.85;22.50;;;7.50;99.90;;;;;;5076751;28;20043;-41
2020/12/02 12:53:21;;;;;;;40.75;22.42;;;7.60;99.90;;;;;;5076264;28;20025;-42
2020/12/02 12:55:46;;;;;;;41.25;23.27;;;7.50;99.90;;;;;;5076819;28;20028;-41
2020/12/02 12:58:15;;;;;;;38.67;23.48;;;7.50;99.90;;;;;;5100144;28;20036;-39
2020/12/02 13:00:44;;;;;;;40.78;22.88;;;7.50;99.90;;;;;;5088936;28;20040;-41
2020/12/02 13:03:15;;;;;;;39.65;22.80;;;7.50;99.90;;;;;;5102005;28;20036;-41
2020/12/02 13:05:44;;;;;;;42.03;23.80;;;7.50;99.90;;;;;;5061927;28;20052;-45
2020/12/02 13:08:20;;;;;;;37.95;21.60;;;7.50;99.90;;;;;;5072917;28;20106;-42
2020/12/02 13:11:05;;;;;;;39.78;22.80;;;7.50;99.90;;;;;;5069479;28;20038;-39